• Join FlightAware (Why Join?)
  • Login
  • US Flag 
09:00AM EDT


 

Airport Tracker/Info


-or-


 

Live Flight TrackerFlight Track Log ✈ USC105 ✈ 02-May-2013 ✈ KDPA - KYIP

Flight Track Log - Related Links

Times and Time Zones

All times are in EDT time to prevent confusion due to time zone crossing. See the USC105 flight status page for this flight to view local times or setup timezone preferences in your user account.

Time Position Orientation Groundspeed Altitude Reporting Facility
EDT Latitude Longitude Course Direction KTS MPH feet Rate Location/Type
05:26AM 41.8833 -88.2333 151° Southeast 120 138 2,300  Level Chicago TRACON
05:27AM 41.8497 -88.2089 152° Southeast 113 130 3,400 960 Climbing Chicago Center
05:28AM 41.8233 -88.1864 148° Southeast 114 131 4,400 1,080 Climbing Chicago Center
05:29AM 41.8036 -88.1500 126° Southeast 119 137 5,600 1,080 Climbing Chicago Center
05:30AM 41.7836 -88.1150 127° Southeast 116 133 6,600 660 Climbing Chicago Center
05:31AM 41.9333 -87.9561 151° Southeast  Level Estimated
05:31AM 41.7869 -88.0600 85° East 162 186 7,000  Level Chicago Center
05:32AM 41.7947 -87.9972 81° East 167 192 7,000  Level Chicago Center
05:33AM 41.8033 -87.9331 80° East 173 199 7,000 -60 Level Chicago Center
05:34AM 41.8167 -87.8500 78° East 181 208 6,900  Descending Chicago TRACON
05:35AM 41.8167 -87.7833 90° East 189 217 7,000  Climbing Chicago TRACON
05:36AM 41.8333 -87.7167 71° East 187 215 7,000  Level Chicago TRACON
05:37AM 41.8333 -87.6333 90° East 188 216 7,000  Level Chicago TRACON
05:38AM 41.8428 -87.5942 72° East 186 214 7,000  Level Chicago Center
05:39AM 41.8511 -87.5264 81° East 185 213 7,000  Level Chicago Center
05:40AM 41.8608 -87.4442 81° East 186 214 7,000  Level Chicago Center
05:41AM 41.8692 -87.3758 81° East 186 214 7,000 -300 Level Chicago Center
05:42AM 41.8767 -87.3058 82° East 189 217 6,500 -480 Descending Chicago Center
05:43AM 41.8853 -87.2314 81° East 200 230 6,100 -480 Descending Chicago Center
05:44AM 41.8942 -87.1575 81° East 202 232 5,600 -600 Descending Chicago Center
05:45AM 41.9017 -87.0819 82° East 204 235 5,000 -360 Descending Chicago Center
05:46AM 41.9106 -87.0125 80° East 196 226 4,900 -60 Descending Chicago Center
05:47AM 41.9172 -86.9439 83° East 189 217 4,900  Level Chicago Center
05:48AM 41.9231 -86.8764 83° East 184 212 4,900  Level Chicago Center
05:49AM 41.9311 -86.8092 81° East 183 211 4,900  Level Chicago Center
05:50AM 41.9389 -86.7425 81° East 182 209 4,900  Level Chicago Center
05:51AM 41.9453 -86.6728 83° East 182 209 4,900  Level Chicago Center
05:52AM 41.9522 -86.6053 82° East 182 209 4,900  Level Chicago Center
05:53AM 41.9600 -86.5381 81° East 183 211 4,900  Level Chicago Center
05:54AM 41.9672 -86.4700 82° East 184 212 5,000  Climbing Chicago Center
05:55AM 41.9742 -86.4022 82° East 183 211 4,900 -60 Descending Chicago Center
05:56AM 41.9825 -86.3353 80° East 182 209 4,900  Level Chicago Center
05:57AM 41.9886 -86.2678 83° East 183 211 4,900  Level Chicago Center
05:58AM 41.9956 -86.1994 82° East 185 213 4,900  Level Chicago Center
05:59AM 42.0025 -86.1322 82° East 182 209 4,900  Level Chicago Center
06:00AM 42.0097 -86.0653 82° East 182 209 4,900  Level Chicago Center
06:01AM 42.0164 -85.9981 82° East 181 208 4,900  Level Chicago Center
06:02AM 42.0231 -85.9314 82° East 181 208 4,900  Level Chicago Center
06:03AM 42.0297 -85.8656 82° East 179 206 4,900  Level Chicago Center
06:04AM 42.0364 -85.7986 82° East 180 207 4,900  Level Chicago Center
06:05AM 42.0425 -85.7322 83° East 179 206 4,900  Level Chicago Center
06:06AM 42.0492 -85.6667 82° East 178 205 4,900  Level Chicago Center
06:07AM 42.0561 -85.6011 82° East 177 204 4,900  Level Chicago Center
06:08AM 42.0633 -85.5339 82° East 179 206 4,900  Level Chicago Center
06:09AM 42.0708 -85.4664 81° East 181 208 4,900  Level Chicago Center
06:10AM 42.0761 -85.3992 84° East 181 208 4,900  Level Chicago Center
06:11AM 42.0831 -85.3325 82° East 180 207 4,900  Level Chicago Center
06:12AM 42.0886 -85.2653 84° East 180 207 4,900  Level Chicago Center
06:13AM 42.0953 -85.1986 82° East 180 207 4,900  Level Chicago Center
06:14AM 42.1022 -85.1322 82° East 179 206 4,900  Level Chicago Center
06:15AM 42.1086 -85.0664 83° East 179 206 4,900  Level Chicago Center
06:16AM 42.1158 -84.9856 83° East 180 207 4,900  Level Chicago Center
06:17AM 42.1219 -84.9200 83° East 178 205 4,900  Level Chicago Center
06:18AM 42.1278 -84.8542 83° East 177 204 4,900  Level Chicago Center
06:19AM 42.1344 -84.7881 82° East 178 205 4,900  Level Chicago Center
06:20AM 42.1394 -84.7214 84° East 179 206 4,900  Level Chicago Center
06:21AM 42.1458 -84.6544 83° East 179 206 4,900  Level Chicago Center
06:22AM 42.1517 -84.5900 83° East 176 203 4,900  Level Chicago Center
06:23AM 42.1581 -84.5192 83° East 179 206 4,900  Level Chicago Center
06:24AM 42.1639 -84.4539 83° East 178 205 4,900 60 Level Chicago Center
06:25AM 42.1644 -84.4325 88° East 173 199 5,000 60 Climbing Cleveland Center
06:26AM 42.1706 -84.3683 83° East 172 198 5,000  Level Cleveland Center
06:27AM 42.1747 -84.3042 85° East 173 199 5,000  Level Cleveland Center
06:27AM 42.1808 -84.2486 82° East 173 199 5,000  Level Cleveland Center
06:28AM 42.1869 -84.1844 83° East 174 200 5,000 -60 Level Cleveland Center
06:30AM 42.1942 -84.0894 84° East 174 200 4,900 -300 Descending Cleveland Center
06:31AM 42.2003 -84.0225 83° East 183 211 4,400 -540 Descending Cleveland Center
06:32AM 42.2044 -83.9497 86° East 175 201 3,800 -720 Descending Cleveland Center
06:33AM 42.2100 -83.9025 81° East 185 213 3,200 -540 Descending Cleveland Center
06:34AM 42.2139 -83.8411 85° East 177 204 3,000 -180 Descending Cleveland Center
06:35AM 42.2219 -83.7769 80° East 167 192 2,900 -420 Descending Cleveland Center
06:36AM 42.2350 -83.6822 79° East 184 212 2,100 -480 Descending Cleveland Center
06:37AM 42.2428 -83.6264 79° East 165 190 1,800 -420 Descending Cleveland Center
06:38AM 42.2439 -83.5789 88° East 127 146 1,400 -480 Descending Cleveland Center